Time;durP1;ratioP1;P1;durP2;ratioP2;P2;SDS_P1;SDS_P2;PMS_P1;PMS_P2;Temp;Humidity;BMP_temperature;BMP_pressure;BME280_temperature;BME280_humidity;BME280_pressure;Samples;Min_cycle;Max_cycle;Signal;HPM_P1;HPM_P2
2023/02/18 00:02:16;;;;;;;;;;;;;;;10.38;100.00;102161.63;10439780;28;19975;-68
2023/02/18 00:07:18;;;;;;;;;;;;;;;10.35;100.00;102150.41;10457873;28;19932;-68
2023/02/18 00:12:20;;;;;;;;;;;;;;;10.13;100.00;102140.63;10457661;28;19929;-68
2023/02/18 00:17:23;;;;;;;;;;;;;;;10.34;100.00;102126.00;10457396;28;19925;-68
2023/02/18 00:22:25;;;;;;;;;;;;;;;10.15;100.00;102130.97;10439704;28;19925;-68
2023/02/18 00:27:27;;;;;;;;;;;;;;;10.18;100.00;102133.47;10455872;28;19928;-68
2023/02/18 00:32:29;;;;;;;;;;;;;;;10.23;100.00;102136.78;10457278;28;19929;-68
2023/02/18 00:37:31;;;;;;;;;;;;;;;10.37;100.00;102122.41;10456471;28;20438;-68
2023/02/18 00:42:36;;;;;;;;;;;;;;;10.62;100.00;102098.81;10457001;28;19925;-68
2023/02/18 00:47:38;;;;;;;;;;;;;;;10.57;100.00;102096.38;10438686;28;19925;-68
2023/02/18 00:52:41;;;;;;;;;;;;;;;10.36;100.00;102100.59;10456838;28;19933;-68
2023/02/18 00:57:43;;;;;;;;;;;;;;;10.56;100.00;102080.72;10456714;28;19924;-68
2023/02/18 01:02:45;;;;;;;;;;;;;;;10.37;100.00;102089.25;10422593;28;19932;-68
2023/02/18 01:07:47;;;;;;;;;;;;;;;10.36;100.00;102073.59;10456521;28;19929;-68
2023/02/18 01:12:49;;;;;;;;;;;;;;;10.41;100.00;102082.97;10457029;28;19932;-68
2023/02/18 01:17:52;;;;;;;;;;;;;;;10.49;100.00;102074.84;10445926;28;19932;-68
2023/02/18 01:22:54;;;;;;;;;;;;;;;10.38;100.00;102075.22;10463029;28;19935;-68
2023/02/18 01:27:56;;;;;;;;;;;;;;;10.64;100.00;102072.56;10463455;28;19976;-68
2023/02/18 01:32:59;;;;;;;;;;;;;;;10.47;100.00;102073.19;10445876;28;20283;-68
2023/02/18 01:38:01;;;;;;;;;;;;;;;10.63;100.00;102061.22;10445431;28;19932;-68
2023/02/18 01:43:04;;;;;;;;;;;;;;;10.52;100.00;102060.78;10462913;28;19939;-68
2023/02/18 01:48:08;;;;;;;;;;;;;;;10.51;100.00;102064.31;10462516;28;19924;-68
2023/02/18 01:53:10;;;;;;;;;;;;;;;10.71;100.00;102053.09;10444742;28;19925;-68
2023/02/18 01:58:13;;;;;;;;;;;;;;;10.65;100.00;102048.09;10485235;28;19931;-68
2023/02/18 02:03:15;;;;;;;;;;;;;;;10.59;100.00;102057.00;10444492;28;19924;-69
2023/02/18 02:08:17;;;;;;;;;;;;;;;10.48;100.00;102056.56;10443986;28;19979;-68
2023/02/18 02:13:28;;;;;;;;;;;;;;;10.53;100.00;102052.88;10443900;28;20299;-69
2023/02/18 02:19:00;;;;;;;;;;;;;;;10.45;100.00;102041.81;10461074;28;20335;-68
2023/02/18 02:24:11;;;;;;;;;;;;;;;10.58;100.00;102021.28;10448323;28;19954;-69
2023/02/18 02:29:20;;;;;;;;;;;;;;;10.53;100.00;102021.44;10461024;28;19929;-68
2023/02/18 02:34:37;;;;;;;;;;;;;;;10.50;100.00;102016.31;10443681;28;19928;-69
2023/02/18 02:39:42;;;;;;;;;;;;;;;10.61;100.00;101994.97;10460309;28;19925;-68
2023/02/18 02:44:55;;;;;;;;;;;;;;;10.46;100.00;101979.84;10442456;28;19928;-68
2023/02/18 02:50:02;;;;;;;;;;;;;;;10.48;100.00;101970.16;10443331;28;19936;-68
2023/02/18 02:55:07;;;;;;;;;;;;;;;10.54;100.00;101964.66;10442169;28;19932;-68
2023/02/18 03:00:10;;;;;;;;;;;;;;;10.61;100.00;101960.94;10459571;28;19925;-68
2023/02/18 03:05:31;;;;;;;;;;;;;;;10.48;100.00;101941.38;10441674;28;19972;-69
2023/02/18 03:10:39;;;;;;;;;;;;;;;10.68;100.00;101932.72;10459687;28;19975;-68
2023/02/18 03:15:49;;;;;;;;;;;;;;;10.52;100.00;101922.00;10458931;28;20273;-69
2023/02/18 03:21:10;;;;;;;;;;;;;;;10.36;100.00;101921.75;10425386;28;19924;-68
2023/02/18 03:26:13;;;;;;;;;;;;;;;10.37;100.00;101912.97;10459128;28;19929;-68
2023/02/18 03:31:16;;;;;;;;;;;;;;;10.55;100.00;101907.00;10440657;28;19928;-68
2023/02/18 03:36:19;;;;;;;;;;;;;;;10.46;100.00;101896.06;10440589;28;19951;-68
2023/02/18 03:41:21;;;;;;;;;;;;;;;10.38;100.00;101893.72;10440277;28;19931;-68
2023/02/18 03:46:23;;;;;;;;;;;;;;;10.39;100.00;101890.22;10440243;28;20418;-68
2023/02/18 03:51:25;;;;;;;;;;;;;;;10.43;100.00;101886.56;10458197;28;19928;-68
2023/02/18 03:56:28;;;;;;;;;;;;;;;10.33;100.00;101879.97;10440599;28;19924;-68
2023/02/18 04:01:30;;;;;;;;;;;;;;;10.25;100.00;101867.13;10457947;28;19931;-68
2023/02/18 04:06:32;;;;;;;;;;;;;;;10.23;100.00;101855.88;10440293;28;19951;-68
2023/02/18 04:11:35;;;;;;;;;;;;;;;10.21;100.00;101837.63;10439287;28;19932;-68
2023/02/18 04:16:38;;;;;;;;;;;;;;;10.31;100.00;101837.28;10457646;28;19925;-68
2023/02/18 04:21:40;;;;;;;;;;;;;;;10.26;100.00;101834.00;10439748;28;19925;-68
2023/02/18 04:26:42;;;;;;;;;;;;;;;10.16;100.00;101823.88;10457310;28;19932;-67
2023/02/18 04:31:44;;;;;;;;;;;;;;;10.22;100.00;101838.47;10456425;28;19979;-68
2023/02/18 04:36:47;;;;;;;;;;;;;;;10.27;100.00;101846.16;10457176;28;19940;-68
2023/02/18 04:41:49;;;;;;;;;;;;;;;10.22;100.00;101839.34;10456994;28;19925;-68
2023/02/18 04:46:51;;;;;;;;;;;;;;;10.08;100.00;101830.31;10457002;28;20380;-68
2023/02/18 04:51:53;;;;;;;;;;;;;;;10.15;100.00;101830.00;10464989;28;19979;-68
2023/02/18 04:56:56;;;;;;;;;;;;;;;10.21;100.00;101828.94;10464425;28;20371;-68
2023/02/18 05:01:58;;;;;;;;;;;;;;;10.10;100.00;101813.63;10430157;28;19925;-67
2023/02/18 05:07:00;;;;;;;;;;;;;;;10.09;100.00;101825.03;10464128;28;19932;-68
2023/02/18 05:12:03;;;;;;;;;;;;;;;10.07;100.00;101820.75;10463827;28;19931;-68
2023/02/18 05:17:05;;;;;;;;;;;;;;;10.05;100.00;101799.88;10463622;28;19935;-67
2023/02/18 05:22:07;;;;;;;;;;;;;;;10.15;100.00;101784.66;10463951;28;19925;-68
2023/02/18 05:27:09;;;;;;;;;;;;;;;10.03;100.00;101786.00;10463188;28;20315;-68
2023/02/18 05:32:12;;;;;;;;;;;;;;;10.09;100.00;101785.78;10462765;28;19925;-68
2023/02/18 05:37:14;;;;;;;;;;;;;;;10.13;100.00;101781.28;10463449;28;20040;-68
2023/02/18 05:42:16;;;;;;;;;;;;;;;10.22;100.00;101780.88;10462486;28;19972;-68
2023/02/18 05:47:18;;;;;;;;;;;;;;;10.13;100.00;101773.41;10445545;28;20038;-68
2023/02/18 05:52:20;;;;;;;;;;;;;;;10.00;100.00;101766.06;10462361;28;19924;-68
2023/02/18 05:57:23;;;;;;;;;;;;;;;10.03;100.00;101767.69;10462822;28;19975;-68
2023/02/18 06:02:25;;;;;;;;;;;;;;;10.11;100.00;101776.09;10461007;28;19929;-67
2023/02/18 06:07:27;;;;;;;;;;;;;;;9.93;100.00;101761.97;10461789;28;20279;-67
2023/02/18 06:12:29;;;;;;;;;;;;;;;10.02;100.00;101773.84;10461538;28;20376;-67
2023/02/18 06:17:32;;;;;;;;;;;;;;;10.06;100.00;101764.13;10461908;28;19924;-67
2023/02/18 06:22:34;;;;;;;;;;;;;;;10.03;100.00;101760.69;10461662;28;19944;-67
2023/02/18 06:27:36;;;;;;;;;;;;;;;10.03;100.00;101755.44;10461473;28;19928;-67
2023/02/18 06:32:38;;;;;;;;;;;;;;;9.98;100.00;101760.03;10461192;28;19925;-68
2023/02/18 06:37:40;;;;;;;;;;;;;;;9.98;100.00;101753.94;10443444;28;19924;-68
2023/02/18 06:42:43;;;;;;;;;;;;;;;10.01;100.00;101749.44;10472693;22;19924;-71
2023/02/18 06:47:45;;;;;;;;;;;;;;;9.98;100.00;101751.34;10501175;28;19924;-71
2023/02/18 06:52:47;;;;;;;;;;;;;;;10.00;100.00;101765.19;10501407;28;20381;-71
2023/02/18 06:57:49;;;;;;;;;;;;;;;9.93;100.00;101768.97;10483522;28;19924;-71
2023/02/18 07:02:52;;;;;;;;;;;;;;;10.01;100.00;101774.75;10499773;28;19978;-71
2023/02/18 07:07:54;;;;;;;;;;;;;;;9.90;100.00;101766.47;10501412;28;19924;-71
2023/02/18 07:12:56;;;;;;;;;;;;;;;9.90;100.00;101769.09;10500274;28;19928;-71
2023/02/18 07:17:58;;;;;;;;;;;;;;;9.99;100.00;101766.97;10500364;28;19928;-71
2023/02/18 07:23:00;;;;;;;;;;;;;;;9.91;100.00;101765.56;10500109;28;19947;-71
2023/02/18 07:28:02;;;;;;;;;;;;;;;9.94;100.00;101781.16;10500179;28;19924;-70
2023/02/18 07:33:05;;;;;;;;;;;;;;;9.91;100.00;101783.88;10500389;28;19974;-71
2023/02/18 07:38:07;;;;;;;;;;;;;;;9.85;100.00;101787.56;10500256;28;19924;-71
2023/02/18 07:43:10;;;;;;;;;;;;;;;10.00;100.00;101780.91;10499686;28;19931;-70
2023/02/18 07:48:12;;;;;;;;;;;;;;;9.93;100.00;101776.81;10499443;28;20319;-71
2023/02/18 07:53:15;;;;;;;;;;;;;;;9.90;100.00;101776.94;10498591;28;19924;-71
2023/02/18 07:58:21;;;;;;;;;;;;;;;9.83;100.00;101776.31;10499583;28;19924;-71
2023/02/18 08:03:25;;;;;;;;;;;;;;;9.72;100.00;101781.97;10498203;28;19926;-71
2023/02/18 08:08:28;;;;;;;;;;;;;;;9.69;100.00;101774.25;10498213;28;19924;-71
2023/02/18 08:13:30;;;;;;;;;;;;;;;9.73;100.00;101775.81;10497400;28;19924;-70
2023/02/18 08:18:33;;;;;;;;;;;;;;;9.70;100.00;101762.00;10499101;28;19970;-71
2023/02/18 08:23:35;;;;;;;;;;;;;;;9.80;100.00;101748.53;10497914;28;20371;-71
2023/02/18 08:28:37;;;;;;;;;;;;;;;9.90;100.00;101753.38;10498878;28;19932;-70
2023/02/18 08:33:39;;;;;;;;;;;;;;;9.93;100.00;101742.81;10498163;28;19924;-71
2023/02/18 08:38:42;;;;;;;;;;;;;;;9.82;100.00;101740.63;10498976;28;19925;-71
2023/02/18 08:43:44;;;;;;;;;;;;;;;9.99;100.00;101753.88;10498195;28;19924;-71
2023/02/18 08:48:46;;;;;;;;;;;;;;;9.94;100.00;101734.06;10497902;28;20386;-71
2023/02/18 08:53:48;;;;;;;;;;;;;;;9.90;100.00;101729.84;10498402;28;19982;-71
2023/02/18 08:58:51;;;;;;;;;;;;;;;9.99;100.00;101735.56;10498366;28;19924;-71
2023/02/18 09:03:53;;;;;;;;;;;;;;;9.70;100.00;101752.41;10496984;28;19924;-71
2023/02/18 09:08:55;;;;;;;;;;;;;;;9.82;100.00;101756.31;10498190;28;19925;-71
2023/02/18 09:13:57;;;;;;;;;;;;;;;9.70;100.00;101754.16;10497347;28;20326;-71
2023/02/18 09:19:00;;;;;;;;;;;;;;;9.64;100.00;101768.34;10497300;28;19924;-70
2023/02/18 09:24:02;;;;;;;;;;;;;;;9.56;100.00;101773.84;10497518;28;19931;-70
2023/02/18 09:29:05;;;;;;;;;;;;;;;9.60;100.00;101761.50;10497064;28;20390;-70
2023/02/18 09:34:07;;;;;;;;;;;;;;;9.55;100.00;101761.69;10497572;28;19954;-71
2023/02/18 09:39:11;;;;;;;;;;;;;;;9.45;100.00;101770.78;10504936;28;19925;-70
2023/02/18 09:44:19;;;;;;;;;;;;;;;9.38;100.00;101769.28;10502707;28;20322;-70
2023/02/18 09:49:25;;;;;;;;;;;;;;;9.39;100.00;101769.25;10503484;28;19931;-70
2023/02/18 09:54:28;;;;;;;;;;;;;;;9.25;100.00;101766.31;10502669;28;19932;-71
2023/02/18 09:59:30;;;;;;;;;;;;;;;9.52;100.00;101768.81;10503550;28;19932;-71
2023/02/18 10:04:53;;;;;;;;;;;;;;;9.41;100.00;101774.41;10502816;28;19978;-71
2023/02/18 10:09:55;;;;;;;;;;;;;;;9.30;100.00;101782.66;10502078;28;19924;-71
2023/02/18 10:14:59;;;;;;;;;;;;;;;9.43;100.00;101781.31;10503056;28;20422;-71
2023/02/18 10:20:01;;;;;;;;;;;;;;;9.46;100.00;101789.03;10502303;28;19974;-71
2023/02/18 10:25:06;;;;;;;;;;;;;;;9.40;100.00;101797.09;10502044;28;19931;-71
2023/02/18 10:30:08;;;;;;;;;;;;;;;9.48;100.00;101804.63;10501941;28;19924;-71
2023/02/18 10:35:16;;;;;;;;;;;;;;;9.45;100.00;101797.78;10502860;28;20007;-71
2023/02/18 10:40:24;;;;;;;;;;;;;;;9.53;100.00;101807.09;10502046;28;19931;-71
2023/02/18 10:45:39;;;;;;;;;;;;;;;9.47;100.00;101832.56;10500276;28;19928;-70
2023/02/18 10:50:41;;;;;;;;;;;;;;;9.54;100.00;101817.50;10501668;28;20287;-71
2023/02/18 10:55:44;;;;;;;;;;;;;;;9.47;100.00;101816.88;10500920;28;19925;-71
2023/02/18 11:00:47;;;;;;;;;;;;;;;9.49;100.00;101822.88;10500026;28;19929;-71
2023/02/18 11:05:54;;;;;;;;;;;;;;;9.47;100.00;101829.09;10500325;28;19932;-71
2023/02/18 11:10:56;;;;;;;;;;;;;;;9.38;100.00;101829.41;10501404;28;19973;-70
2023/02/18 11:15:59;;;;;;;;;;;;;;;9.55;100.00;101854.94;10500004;28;19932;-71
2023/02/18 11:21:22;;;;;;;;;;;;;;;9.57;100.00;101840.91;10500514;28;20438;-71
2023/02/18 11:26:31;;;;;;;;;;;;;;;9.43;100.00;101856.22;10499929;28;19924;-71
2023/02/18 11:31:52;;;;;;;;;;;;;;;9.46;100.00;101851.78;10499447;28;19931;-71
2023/02/18 11:36:55;;;;;;;;;;;;;;;9.53;100.00;101831.50;10498591;28;19964;-71
2023/02/18 11:41:57;;;;;;;;;;;;;;;9.66;100.00;101821.41;10498345;28;19929;-70
2023/02/18 11:47:00;;;;;;;;;;;;;;;9.83;100.00;101812.94;10499147;28;19929;-71
2023/02/18 11:52:03;;;;;;;;;;;;;;;9.92;100.00;101817.84;10499736;28;19925;-71
2023/02/18 11:57:08;;;;;;;;;;;;;;;10.18;100.00;101811.56;10499169;28;19924;-71
2023/02/18 12:02:10;;;;;;;;;;;;;;;10.12;100.00;101801.38;10498291;28;19932;-71
2023/02/18 12:07:18;;;;;;;;;;;;;;;10.11;100.00;101789.19;10499314;28;19924;-70
2023/02/18 12:12:24;;;;;;;;;;;;;;;10.41;100.00;101783.66;10497524;28;19924;-71
2023/02/18 12:17:46;;;;;;;;;;;;;;;10.40;100.00;101784.56;10497450;28;19971;-71
2023/02/18 12:23:07;;;;;;;;;;;;;;;10.22;100.00;101758.22;10497876;28;19924;-70
2023/02/18 12:28:28;;;;;;;;;;;;;;;10.29;100.00;101797.19;10498317;28;19947;-71
2023/02/18 12:33:43;;;;;;;;;;;;;;;10.38;100.00;101794.25;10498358;28;20367;-70
2023/02/18 12:38:48;;;;;;;;;;;;;;;10.80;100.00;101768.97;10498775;28;19924;-71
2023/02/18 12:43:53;;;;;;;;;;;;;;;10.56;100.00;101784.81;10497684;28;20402;-71
2023/02/18 12:49:05;;;;;;;;;;;;;;;10.54;100.00;101778.75;10497891;28;19924;-71
2023/02/18 12:54:20;;;;;;;;;;;;;;;10.64;100.00;101774.88;10497275;28;19925;-70
2023/02/18 12:59:28;;;;;;;;;;;;;;;10.63;100.00;101781.00;10498284;28;19924;-71
2023/02/18 13:04:31;;;;;;;;;;;;;;;10.58;100.00;101777.72;10498061;28;19924;-71
2023/02/18 13:09:55;;;;;;;;;;;;;;;10.64;100.00;101766.13;10500008;28;19950;-70
2023/02/18 13:15:15;;;;;;;;;;;;;;;10.67;100.00;101777.31;10464785;28;20387;-69
2023/02/18 13:20:20;;;;;;;;;;;;;;;10.70;100.00;101782.44;10505132;28;20398;-70
2023/02/18 13:25:22;;;;;;;;;;;;;;;10.90;100.00;101783.38;10504214;28;19932;-71
2023/02/18 13:30:27;;;;;;;;;;;;;;;10.85;100.00;101780.94;10503489;28;19928;-71
2023/02/18 13:35:47;;;;;;;;;;;;;;;10.91;100.00;101783.31;10505109;28;19932;-71
2023/02/18 13:40:49;;;;;;;;;;;;;;;10.83;100.00;101781.94;10504975;28;19931;-70
2023/02/18 13:46:20;;;;;;;;;;;;;;;10.92;100.00;101773.66;10503912;28;20364;-71
2023/02/18 13:51:29;;;;;;;;;;;;;;;10.80;100.00;101776.81;10486841;28;20386;-70
2023/02/18 13:56:32;;;;;;;;;;;;;;;10.98;100.00;101786.50;10504407;28;19977;-71
2023/02/18 14:01:41;;;;;;;;;;;;;;;10.90;100.00;101778.13;10504283;28;19928;-71
2023/02/18 14:07:02;;;;;;;;;;;;;;;10.94;100.00;101790.16;10502218;28;20326;-70
2023/02/18 14:12:36;;;;;;;;;;;;;;;11.03;100.00;101778.44;10503874;28;19928;-71
2023/02/18 14:17:40;;;;;;;;;;;;;;;11.08;100.00;101779.13;10432732;28;20264;-71
2023/02/18 14:22:46;;;;;;;;;;;;;;;10.79;100.00;101781.19;10501894;28;19931;-70
2023/02/18 14:27:52;;;;;;;;;;;;;;;10.87;100.00;101786.97;10501470;28;19970;-70
2023/02/18 14:32:58;;;;;;;;;;;;;;;11.07;100.00;101783.47;10501885;28;19925;-72
2023/02/18 14:38:19;;;;;;;;;;;;;;;11.10;100.00;101796.44;10501764;28;19983;-69
2023/02/18 14:43:24;;;;;;;;;;;;;;;11.12;100.00;101785.91;10502326;28;19931;-70
2023/02/18 14:48:26;;;;;;;;;;;;;;;11.28;100.00;101778.19;10502387;28;19937;-70
2023/02/18 14:53:29;;;;;;;;;;;;;;;11.26;100.00;101786.16;10502719;28;20011;-70
2023/02/18 14:58:40;;;;;;;;;;;;;;;11.43;100.00;101782.78;10501348;28;19924;-70
2023/02/18 15:03:43;;;;;;;;;;;;;;;11.35;100.00;101782.28;10501029;28;20326;-70
2023/02/18 15:08:45;;;;;;;;;;;;;;;11.30;100.00;101781.63;10500902;28;19951;-70
2023/02/18 15:13:47;;;;;;;;;;;;;;;11.49;100.00;101794.75;10499423;28;19924;-70
2023/02/18 15:18:53;;;;;;;;;;;;;;;11.57;100.00;101797.03;10499350;28;19924;-69
2023/02/18 15:23:57;;;;;;;;;;;;;;;11.66;100.00;101786.94;10499855;28;19978;-70
2023/02/18 15:29:00;;;;;;;;;;;;;;;11.43;100.00;101789.78;10500122;28;19924;-70
2023/02/18 15:34:13;;;;;;;;;;;;;;;11.32;100.00;101780.63;10498116;28;20326;-70
2023/02/18 15:39:17;;;;;;;;;;;;;;;11.43;100.00;101785.41;10498461;28;20157;-70
2023/02/18 15:44:23;;;;;;;;;;;;;;;11.33;100.00;101787.59;10498574;28;19974;-70
2023/02/18 15:49:25;;;;;;;;;;;;;;;11.32;100.00;101791.13;10499354;28;20330;-70
2023/02/18 15:54:28;;;;;;;;;;;;;;;11.26;100.00;101783.53;10499361;28;19928;-70
2023/02/18 15:59:33;;;;;;;;;;;;;;;11.18;100.00;101787.41;10499032;28;19970;-70
2023/02/18 16:04:37;;;;;;;;;;;;;;;11.17;100.00;101788.34;10499512;28;19928;-70
2023/02/18 16:09:39;;;;;;;;;;;;;;;11.02;100.00;101793.31;10498345;28;19925;-70
2023/02/18 16:14:45;;;;;;;;;;;;;;;10.95;100.00;101789.25;10498630;28;19974;-70
2023/02/18 16:19:50;;;;;;;;;;;;;;;10.90;100.00;101799.09;10498037;28;19935;-70
2023/02/18 16:25:11;;;;;;;;;;;;;;;10.83;100.00;101802.91;10498381;28;20359;-70
2023/02/18 16:30:16;;;;;;;;;;;;;;;10.70;100.00;101798.16;10498284;28;20283;-70
2023/02/18 16:35:19;;;;;;;;;;;;;;;10.57;100.00;101807.44;10497044;28;19928;-70
2023/02/18 16:40:22;;;;;;;;;;;;;;;10.63;100.00;101808.97;10497630;28;19928;-70
2023/02/18 16:45:45;;;;;;;;;;;;;;;10.64;100.00;101811.53;10503434;28;19959;-70
2023/02/18 16:50:50;;;;;;;;;;;;;;;10.55;100.00;101806.66;10506422;28;20414;-70
2023/02/18 16:55:53;;;;;;;;;;;;;;;10.53;100.00;101809.34;10506232;28;19947;-70
2023/02/18 17:00:55;;;;;;;;;;;;;;;10.55;100.00;101820.59;10505991;28;20376;-69
2023/02/18 17:05:57;;;;;;;;;;;;;;;10.68;100.00;101812.25;10506313;28;19931;-69
2023/02/18 17:11:00;;;;;;;;;;;;;;;10.58;100.00;101822.25;10506210;28;19924;-70
2023/02/18 17:16:02;;;;;;;;;;;;;;;10.58;100.00;101811.78;10505332;28;20417;-70
2023/02/18 17:21:05;;;;;;;;;;;;;;;10.63;100.00;101827.31;10505847;28;19932;-70
2023/02/18 17:26:12;;;;;;;;;;;;;;;10.73;100.00;101815.53;10505489;28;19924;-70
2023/02/18 17:31:34;;;;;;;;;;;;;;;10.58;100.00;101822.25;10504265;28;19924;-70
2023/02/18 17:36:38;;;;;;;;;;;;;;;10.50;100.00;101834.78;10503525;28;19924;-70
2023/02/18 17:41:40;;;;;;;;;;;;;;;10.40;100.00;101829.91;10504346;28;20406;-70
2023/02/18 17:46:43;;;;;;;;;;;;;;;10.25;100.00;101835.72;10502791;28;19929;-70
2023/02/18 17:51:45;;;;;;;;;;;;;;;10.20;100.00;101838.56;10503504;28;19971;-70
2023/02/18 17:56:47;;;;;;;;;;;;;;;10.29;100.00;101839.06;10502934;28;20383;-69
2023/02/18 18:01:49;;;;;;;;;;;;;;;10.17;100.00;101843.03;10503665;28;19978;-69
2023/02/18 18:06:52;;;;;;;;;;;;;;;10.22;100.00;101841.09;10503392;28;19977;-69
2023/02/18 18:11:54;;;;;;;;;;;;;;;10.25;100.00;101843.59;10503893;28;19971;-69
2023/02/18 18:16:57;;;;;;;;;;;;;;;10.35;100.00;101849.34;10503145;28;19947;-69
2023/02/18 18:21:59;;;;;;;;;;;;;;;10.35;100.00;101846.72;10503473;28;19978;-69
2023/02/18 18:27:02;;;;;;;;;;;;;;;10.45;100.00;101834.97;10502655;28;19928;-70
2023/02/18 18:32:04;;;;;;;;;;;;;;;10.20;100.00;101845.53;10503112;28;19928;-70
2023/02/18 18:37:07;;;;;;;;;;;;;;;10.21;100.00;101847.25;10502334;28;20016;-70
2023/02/18 18:42:09;;;;;;;;;;;;;;;10.39;100.00;101848.34;10502740;28;19924;-70
2023/02/18 18:47:12;;;;;;;;;;;;;;;10.24;100.00;101839.28;10500566;28;19978;-70
2023/02/18 18:52:15;;;;;;;;;;;;;;;10.06;100.00;101850.47;10502242;28;19947;-69
2023/02/18 18:57:17;;;;;;;;;;;;;;;9.98;100.00;101851.59;10508861;22;19925;-68
2023/02/18 19:02:19;;;;;;;;;;;;;;;10.04;100.00;101846.13;10460452;28;19929;-68
2023/02/18 19:07:22;;;;;;;;;;;;;;;9.99;100.00;101836.75;10459626;28;19925;-69
2023/02/18 19:12:24;;;;;;;;;;;;;;;10.17;100.00;101825.59;10460145;28;19925;-69
2023/02/18 19:17:26;;;;;;;;;;;;;;;10.25;100.00;101821.81;10459275;28;19925;-69
2023/02/18 19:22:28;;;;;;;;;;;;;;;10.58;100.00;101822.25;10459788;28;19928;-69
2023/02/18 19:27:30;;;;;;;;;;;;;;;10.28;100.00;101812.06;10458868;28;19925;-69
2023/02/18 19:32:33;;;;;;;;;;;;;;;10.33;100.00;101819.78;10440933;28;19924;-69
2023/02/18 19:37:35;;;;;;;;;;;;;;;10.26;100.00;101826.13;10441552;28;19931;-69
2023/02/18 19:42:37;;;;;;;;;;;;;;;10.26;100.00;101824.38;10440709;28;19924;-69
2023/02/18 19:47:42;;;;;;;;;;;;;;;10.35;100.00;101813.53;10458652;28;19928;-69
2023/02/18 19:52:44;;;;;;;;;;;;;;;10.34;100.00;101808.38;10458603;28;19970;-68
2023/02/18 19:57:47;;;;;;;;;;;;;;;10.40;100.00;101808.13;10463353;28;19925;-69
2023/02/18 20:02:49;;;;;;;;;;;;;;;10.50;100.00;101790.28;10499068;28;19924;-69
2023/02/18 20:07:51;;;;;;;;;;;;;;;10.53;100.00;101800.63;10498820;28;19924;-69
2023/02/18 20:12:54;;;;;;;;;;;;;;;10.32;100.00;101791.88;10498721;28;19925;-69
2023/02/18 20:17:56;;;;;;;;;;;;;;;10.70;100.00;101790.28;10498164;28;20379;-69
2023/02/18 20:22:58;;;;;;;;;;;;;;;10.63;100.00;101764.44;10498510;28;19947;-69
2023/02/18 20:28:00;;;;;;;;;;;;;;;10.48;100.00;101779.88;10481214;28;20223;-69
2023/02/18 20:33:03;;;;;;;;;;;;;;;10.36;100.00;101776.00;10498963;28;19925;-69
2023/02/18 20:38:05;;;;;;;;;;;;;;;10.49;100.00;101763.25;10498840;28;19974;-69
2023/02/18 20:43:07;;;;;;;;;;;;;;;10.62;100.00;101753.09;10498752;28;19950;-69
2023/02/18 20:48:09;;;;;;;;;;;;;;;10.41;100.00;101753.09;10498415;28;19974;-69
2023/02/18 20:53:11;;;;;;;;;;;;;;;10.52;100.00;101746.56;10497971;28;20325;-69
2023/02/18 20:58:14;;;;;;;;;;;;;;;10.37;100.00;101742.81;10497706;28;19925;-69
2023/02/18 21:03:16;;;;;;;;;;;;;;;10.53;100.00;101737.78;10497749;28;20375;-69
2023/02/18 21:08:18;;;;;;;;;;;;;;;10.68;100.00;101742.38;10497546;28;20015;-69
2023/02/18 21:13:21;;;;;;;;;;;;;;;10.35;100.00;101737.63;10498157;28;19924;-68
2023/02/18 21:18:23;;;;;;;;;;;;;;;10.50;100.00;101764.94;10479601;28;19974;-68
2023/02/18 21:23:26;;;;;;;;;;;;;;;10.35;100.00;101752.50;10497376;28;19929;-68
2023/02/18 21:28:28;;;;;;;;;;;;;;;10.47;100.00;101759.81;10497827;28;19924;-68
2023/02/18 21:33:30;;;;;;;;;;;;;;;10.37;100.00;101741.06;10504050;28;19925;-69
2023/02/18 21:38:33;;;;;;;;;;;;;;;10.50;100.00;101732.69;10504471;28;20429;-68
2023/02/18 21:43:35;;;;;;;;;;;;;;;10.35;100.00;101742.03;10504970;28;19925;-68
2023/02/18 21:53:58;;;;;;;;;;;;;;;10.29;100.00;101745.72;10504048;28;20371;-67
2023/02/18 21:59:00;;;;;;;;;;;;;;;10.10;100.00;101722.03;10503722;28;20286;-68
2023/02/18 22:04:02;;;;;;;;;;;;;;;10.29;100.00;101701.22;10504211;28;19928;-68
2023/02/18 22:09:05;;;;;;;;;;;;;;;10.14;100.00;101709.72;10504207;28;19970;-68
2023/02/18 22:14:07;;;;;;;;;;;;;;;10.06;100.00;101727.50;10486133;28;19929;-67
2023/02/18 22:19:10;;;;;;;;;;;;;;;10.21;100.00;101721.63;10485899;28;19928;-67
2023/02/18 22:24:12;;;;;;;;;;;;;;;10.27;100.00;101720.50;10503394;28;19970;-67
2023/02/18 22:29:16;;;;;;;;;;;;;;;10.33;100.00;101720.31;10485546;28;19928;-68
2023/02/18 22:34:18;;;;;;;;;;;;;;;10.10;100.00;101731.66;10485445;28;19929;-67
2023/02/18 22:39:21;;;;;;;;;;;;;;;10.11;100.00;101739.47;10485169;28;19977;-68
2023/02/18 22:44:24;;;;;;;;;;;;;;;10.22;100.00;101742.50;10484519;28;19932;-68
2023/02/18 22:49:27;;;;;;;;;;;;;;;10.15;100.00;101730.56;10502519;28;19928;-67
2023/02/18 22:54:29;;;;;;;;;;;;;;;10.14;100.00;101726.25;10502312;28;19924;-68
2023/02/18 22:59:31;;;;;;;;;;;;;;;10.14;100.00;101734.09;10501205;28;20343;-67
2023/02/18 23:04:33;;;;;;;;;;;;;;;10.08;100.00;101721.25;10501745;28;19951;-67
2023/02/18 23:09:35;;;;;;;;;;;;;;;10.11;100.00;101712.44;10483933;28;19924;-67
2023/02/18 23:14:38;;;;;;;;;;;;;;;10.14;100.00;101721.03;10500766;28;19993;-68
2023/02/18 23:19:41;;;;;;;;;;;;;;;10.12;100.00;101711.53;10500551;28;20284;-67
2023/02/18 23:24:44;;;;;;;;;;;;;;;10.15;100.00;101714.00;10483307;28;19932;-68
2023/02/18 23:29:46;;;;;;;;;;;;;;;10.04;100.00;101706.63;10466644;28;19982;-68
2023/02/18 23:34:49;;;;;;;;;;;;;;;9.96;100.00;101714.75;10499983;28;19924;-67
2023/02/18 23:39:51;;;;;;;;;;;;;;;9.94;100.00;101711.38;10482253;28;20299;-68
2023/02/18 23:44:55;;;;;;;;;;;;;;;9.90;100.00;101707.19;10499555;28;20398;-67
2023/02/18 23:49:57;;;;;;;;;;;;;;;9.96;100.00;101695.59;10500066;28;19938;-67
2023/02/18 23:54:59;;;;;;;;;;;;;;;10.08;100.00;101696.88;10499198;28;19970;-68
